Terminal Aerodrome Forecast
Issued by NWS

Home | Current Version | Previous Version | Text Only | Print | Product List | Glossary On
Versions: 1 2 3 4 5 6 7 8 9 10 11 12 13 14 15 16 17 18
747
FTUS41 KPBZ 250520
TAFBVI
TAF
KBVI 250520Z 2506/2606 11011KT P6SM VCSH OVC020
     FM251000 14007KT 5SM -SHRA OVC015
     FM251600 20007KT P6SM VCSH OVC040
     FM260000 24003KT P6SM -SHRA OVC015
     FM260300 24004KT 3SM -SHRA OVC003
      AMD NOT SKED=

USA.gov is the U.S. government's official web portal to all federal, state and local government web resources and services.